centforce.com alexa rank chart, centforce.com alexa rank daily changes

centforce.com alexa rank chart, centforce.com alexa rank daily changes

centforce.com
Actual rank:
442 080

RANK HISTORY

Date Rank Diff
2017/12/13 442 080 +52 690
2017/12/12 389 390 +33 015
2017/12/11 356 375 -1 584
2017/12/10 357 959 +2 840
2017/12/09 355 119 -573
2017/12/08 355 692 +25 441
2017/12/07 330 251 +1 191
2017/12/06 329 060 -25 381
2017/12/05 354 441 -5 210
2017/12/04 359 651 +784
2017/12/03 358 867 +29 748
2017/12/02 329 119 +44 554
2017/12/01 284 565 -6 980
2017/11/30 291 545 -17 095
2017/11/29 308 640 +1 025
2017/11/28 307 615 -683
2017/11/27 308 298 -806
2017/11/26 309 104 -2 649
2017/11/25 311 753 -45 322
2017/11/24 357 075 -51 588
2017/11/23 408 663 +7 415
2017/11/22 401 248 +33 652
2017/11/21 367 596 -1 013
2017/11/20 368 609 -1 440
2017/11/19 370 049 -788
2017/11/18 370 837 +25 628
2017/11/17 345 209 +1 091
2017/11/16 344 118 +1 565
2017/11/15 342 553 +566
2017/11/14 341 987 -953
2017/11/13 342 940 -32 037
2017/11/12 374 977 -33 929
2017/11/11 408 906 -99
2017/11/10 409 005 -3 534
2017/11/09 412 539 +2 078
2017/11/08 410 461 -38 638
2017/11/07 449 099 -1 084
2017/11/06 450 183 -65 590
2017/11/05 515 773 -50
2017/11/04 515 823 +6 421
2017/11/03 509 402 -4 795
2017/11/02 514 197 -83 994
2017/11/01 598 191 +16 333
2017/10/31 581 858 +65 082
2017/10/30 516 776 -2 574
2017/10/29 519 350 -1 142
2017/10/28 520 492 +5 001
2017/10/27 515 491 +31 330
2017/10/26 484 161 +1 609
2017/10/25 482 552 +2 224
2017/10/24 480 328 +27 050
2017/10/23 453 278 -62 915
2017/10/22 516 193 +4 488
2017/10/21 511 705 -536
2017/10/20 512 241 -581
2017/10/19 512 822 +61 771
2017/10/18 451 051 -47 349
2017/10/17 498 400 -1 709
2017/10/16 500 109 +42 616
2017/10/14 457 493

WIDGET FOR YOUR SITE

DOMAINS WITH THE NEAREST RANK

Domain Rank
daily-dew.com 442 075
aegastro.es 442 076
motionbristol.com 442 077
madal.co.kr 442 078
polycinemas.com 442 079
centforce.com 442 080
mazdaclub.cz 442 081
blogbankir.ru 442 082
musicshopeurope.com 442 083
saharabet.com 442 084
greenforex.biz 442 085

DOMAINS WITH THE NEAREST RANK BY TLD .com

Domain Rank
tbwhs.com 442 071
acmilan-online.com 442 073
daily-dew.com 442 075
motionbristol.com 442 077
polycinemas.com 442 079
centforce.com 442 080
musicshopeurope.com 442 083
saharabet.com 442 084
iboxstore.com 442 086
templates.com 442 088
crackprokey.com 442 089